sensor_id;sensor_type;location;lat;lon;timestamp;P1;durP1;ratioP1;P2;durP2;ratioP2
8281;SDS011;25606;42.686;23.136;2022-08-19T00:01:56;3.67;;;3.37;;
8281;SDS011;25606;42.686;23.136;2022-08-19T00:04:25;4.57;;;3.00;;
8281;SDS011;25606;42.686;23.136;2022-08-19T00:06:53;3.57;;;3.27;;
8281;SDS011;25606;42.686;23.136;2022-08-19T00:09:21;3.83;;;3.50;;
8281;SDS011;25606;42.686;23.136;2022-08-19T00:11:49;3.73;;;3.43;;
8281;SDS011;25606;42.686;23.136;2022-08-19T00:14:17;3.83;;;2.93;;
8281;SDS011;25606;42.686;23.136;2022-08-19T00:16:46;3.67;;;3.37;;
8281;SDS011;25606;42.686;23.136;2022-08-19T00:19:15;3.77;;;3.47;;
8281;SDS011;25606;42.686;23.136;2022-08-19T00:21:42;4.50;;;3.07;;
8281;SDS011;25606;42.686;23.136;2022-08-19T00:24:10;4.40;;;3.70;;
8281;SDS011;25606;42.686;23.136;2022-08-19T00:26:38;3.47;;;3.17;;
8281;SDS011;25606;42.686;23.136;2022-08-19T00:29:07;3.67;;;3.30;;
8281;SDS011;25606;42.686;23.136;2022-08-19T00:31:34;3.30;;;3.10;;
8281;SDS011;25606;42.686;23.136;2022-08-19T00:34:02;3.43;;;3.13;;
8281;SDS011;25606;42.686;23.136;2022-08-19T00:36:30;3.70;;;3.40;;
8281;SDS011;25606;42.686;23.136;2022-08-19T00:38:58;4.70;;;3.17;;
8281;SDS011;25606;42.686;23.136;2022-08-19T00:41:26;3.60;;;3.30;;
8281;SDS011;25606;42.686;23.136;2022-08-19T00:43:57;3.37;;;3.07;;
8281;SDS011;25606;42.686;23.136;2022-08-19T00:46:25;3.60;;;3.30;;
8281;SDS011;25606;42.686;23.136;2022-08-19T00:48:52;3.47;;;3.17;;
8281;SDS011;25606;42.686;23.136;2022-08-19T00:51:20;3.70;;;3.20;;
8281;SDS011;25606;42.686;23.136;2022-08-19T00:53:53;6.17;;;3.50;;
8281;SDS011;25606;42.686;23.136;2022-08-19T00:56:21;3.83;;;3.20;;
8281;SDS011;25606;42.686;23.136;2022-08-19T00:58:48;3.67;;;3.37;;
8281;SDS011;25606;42.686;23.136;2022-08-19T01:01:15;3.37;;;3.07;;
8281;SDS011;25606;42.686;23.136;2022-08-19T01:03:43;3.93;;;3.60;;
8281;SDS011;25606;42.686;23.136;2022-08-19T01:06:10;4.10;;;3.37;;
8281;SDS011;25606;42.686;23.136;2022-08-19T01:08:37;3.97;;;3.67;;
8281;SDS011;25606;42.686;23.136;2022-08-19T01:11:06;3.87;;;3.57;;
8281;SDS011;25606;42.686;23.136;2022-08-19T01:13:33;4.03;;;3.63;;
8281;SDS011;25606;42.686;23.136;2022-08-19T01:16:02;3.83;;;3.53;;
8281;SDS011;25606;42.686;23.136;2022-08-19T01:18:30;9.13;;;3.67;;
8281;SDS011;25606;42.686;23.136;2022-08-19T01:20:58;3.70;;;3.40;;
8281;SDS011;25606;42.686;23.136;2022-08-19T01:23:28;4.10;;;3.77;;
8281;SDS011;25606;42.686;23.136;2022-08-19T01:26:09;4.00;;;3.60;;
8281;SDS011;25606;42.686;23.136;2022-08-19T01:28:37;3.90;;;3.50;;
8281;SDS011;25606;42.686;23.136;2022-08-19T01:31:05;3.93;;;3.63;;
8281;SDS011;25606;42.686;23.136;2022-08-19T01:33:32;3.60;;;3.30;;
8281;SDS011;25606;42.686;23.136;2022-08-19T01:36:03;3.70;;;3.30;;
8281;SDS011;25606;42.686;23.136;2022-08-19T01:38:34;3.83;;;3.53;;
8281;SDS011;25606;42.686;23.136;2022-08-19T01:41:02;3.47;;;3.20;;
8281;SDS011;25606;42.686;23.136;2022-08-19T01:43:29;3.90;;;3.50;;
8281;SDS011;25606;42.686;23.136;2022-08-19T01:45:56;4.00;;;3.27;;
8281;SDS011;25606;42.686;23.136;2022-08-19T01:48:23;4.27;;;3.53;;
8281;SDS011;25606;42.686;23.136;2022-08-19T01:50:51;4.97;;;3.60;;
8281;SDS011;25606;42.686;23.136;2022-08-19T01:53:18;4.33;;;3.67;;
8281;SDS011;25606;42.686;23.136;2022-08-19T01:55:47;3.97;;;3.67;;
8281;SDS011;25606;42.686;23.136;2022-08-19T01:58:16;4.07;;;3.67;;
8281;SDS011;25606;42.686;23.136;2022-08-19T02:00:44;4.07;;;3.67;;
8281;SDS011;25606;42.686;23.136;2022-08-19T02:03:12;3.93;;;3.53;;
8281;SDS011;25606;42.686;23.136;2022-08-19T02:05:39;4.03;;;3.40;;
8281;SDS011;25606;42.686;23.136;2022-08-19T02:08:07;3.30;;;3.10;;
8281;SDS011;25606;42.686;23.136;2022-08-19T02:10:38;4.57;;;3.87;;
8281;SDS011;25606;42.686;23.136;2022-08-19T02:13:07;3.70;;;3.30;;
8281;SDS011;25606;42.686;23.136;2022-08-19T02:15:34;5.13;;;3.73;;
8281;SDS011;25606;42.686;23.136;2022-08-19T02:18:01;3.83;;;3.53;;
8281;SDS011;25606;42.686;23.136;2022-08-19T02:20:28;4.10;;;3.43;;
8281;SDS011;25606;42.686;23.136;2022-08-19T02:22:56;3.50;;;3.20;;
8281;SDS011;25606;42.686;23.136;2022-08-19T02:25:23;4.73;;;3.53;;
8281;SDS011;25606;42.686;23.136;2022-08-19T02:27:50;3.43;;;3.13;;
8281;SDS011;25606;42.686;23.136;2022-08-19T02:30:19;4.00;;;3.60;;
8281;SDS011;25606;42.686;23.136;2022-08-19T02:32:47;3.80;;;3.40;;
8281;SDS011;25606;42.686;23.136;2022-08-19T02:35:14;4.13;;;3.73;;
8281;SDS011;25606;42.686;23.136;2022-08-19T02:37:41;4.90;;;3.13;;
8281;SDS011;25606;42.686;23.136;2022-08-19T02:40:26;3.60;;;3.30;;
8281;SDS011;25606;42.686;23.136;2022-08-19T02:42:54;4.17;;;3.77;;
8281;SDS011;25606;42.686;23.136;2022-08-19T02:45:22;4.17;;;3.83;;
8281;SDS011;25606;42.686;23.136;2022-08-19T02:47:50;4.43;;;3.80;;
8281;SDS011;25606;42.686;23.136;2022-08-19T02:50:17;3.73;;;3.43;;
8281;SDS011;25606;42.686;23.136;2022-08-19T02:52:45;4.33;;;3.97;;
8281;SDS011;25606;42.686;23.136;2022-08-19T02:55:12;3.80;;;3.50;;
8281;SDS011;25606;42.686;23.136;2022-08-19T02:57:40;3.93;;;3.53;;
8281;SDS011;25606;42.686;23.136;2022-08-19T03:00:08;4.33;;;3.50;;
8281;SDS011;25606;42.686;23.136;2022-08-19T03:02:38;4.23;;;3.83;;
8281;SDS011;25606;42.686;23.136;2022-08-19T03:05:06;4.37;;;3.97;;
8281;SDS011;25606;42.686;23.136;2022-08-19T03:07:34;4.07;;;3.70;;
8281;SDS011;25606;42.686;23.136;2022-08-19T03:10:02;4.30;;;3.63;;
8281;SDS011;25606;42.686;23.136;2022-08-19T03:12:29;4.40;;;3.40;;
8281;SDS011;25606;42.686;23.136;2022-08-19T03:14:56;5.03;;;3.70;;
8281;SDS011;25606;42.686;23.136;2022-08-19T03:17:23;4.03;;;3.63;;
8281;SDS011;25606;42.686;23.136;2022-08-19T03:19:52;3.87;;;3.53;;
8281;SDS011;25606;42.686;23.136;2022-08-19T03:22:19;4.87;;;3.77;;
8281;SDS011;25606;42.686;23.136;2022-08-19T03:24:46;7.33;;;3.67;;
8281;SDS011;25606;42.686;23.136;2022-08-19T03:27:14;3.80;;;3.50;;
8281;SDS011;25606;42.686;23.136;2022-08-19T03:29:42;4.93;;;3.80;;
8281;SDS011;25606;42.686;23.136;2022-08-19T03:32:10;3.80;;;3.50;;
8281;SDS011;25606;42.686;23.136;2022-08-19T03:34:38;4.30;;;3.73;;
8281;SDS011;25606;42.686;23.136;2022-08-19T03:37:07;3.70;;;3.40;;
8281;SDS011;25606;42.686;23.136;2022-08-19T03:39:35;5.70;;;3.93;;
8281;SDS011;25606;42.686;23.136;2022-08-19T03:42:03;4.13;;;3.83;;
8281;SDS011;25606;42.686;23.136;2022-08-19T03:44:30;3.80;;;3.50;;
8281;SDS011;25606;42.686;23.136;2022-08-19T03:46:58;3.70;;;3.40;;
8281;SDS011;25606;42.686;23.136;2022-08-19T03:49:26;4.10;;;3.70;;
8281;SDS011;25606;42.686;23.136;2022-08-19T03:51:55;3.90;;;3.50;;
8281;SDS011;25606;42.686;23.136;2022-08-19T03:54:24;3.83;;;3.53;;
8281;SDS011;25606;42.686;23.136;2022-08-19T03:56:53;4.10;;;3.70;;
8281;SDS011;25606;42.686;23.136;2022-08-19T03:59:22;4.10;;;3.80;;
8281;SDS011;25606;42.686;23.136;2022-08-19T04:01:51;4.27;;;3.93;;
8281;SDS011;25606;42.686;23.136;2022-08-19T04:04:18;6.03;;;4.00;;
8281;SDS011;25606;42.686;23.136;2022-08-19T04:06:46;4.40;;;3.83;;
8281;SDS011;25606;42.686;23.136;2022-08-19T04:09:13;4.53;;;3.80;;
8281;SDS011;25606;42.686;23.136;2022-08-19T04:11:43;4.07;;;3.67;;
8281;SDS011;25606;42.686;23.136;2022-08-19T04:14:11;4.27;;;3.87;;
8281;SDS011;25606;42.686;23.136;2022-08-19T04:16:39;4.57;;;3.87;;
8281;SDS011;25606;42.686;23.136;2022-08-19T04:19:06;5.83;;;3.80;;
8281;SDS011;25606;42.686;23.136;2022-08-19T04:21:33;4.07;;;3.67;;
8281;SDS011;25606;42.686;23.136;2022-08-19T04:24:01;4.13;;;3.83;;
8281;SDS011;25606;42.686;23.136;2022-08-19T04:26:30;3.93;;;3.60;;
8281;SDS011;25606;42.686;23.136;2022-08-19T04:28:59;4.27;;;3.87;;
8281;SDS011;25606;42.686;23.136;2022-08-19T04:31:28;5.20;;;3.87;;
8281;SDS011;25606;42.686;23.136;2022-08-19T04:33:56;3.90;;;3.60;;
8281;SDS011;25606;42.686;23.136;2022-08-19T04:36:26;4.03;;;3.53;;
8281;SDS011;25606;42.686;23.136;2022-08-19T04:38:53;4.07;;;3.73;;
8281;SDS011;25606;42.686;23.136;2022-08-19T04:41:21;4.40;;;4.00;;
8281;SDS011;25606;42.686;23.136;2022-08-19T04:44:08;4.97;;;3.93;;
8281;SDS011;25606;42.686;23.136;2022-08-19T04:46:36;5.30;;;3.90;;
8281;SDS011;25606;42.686;23.136;2022-08-19T04:49:04;4.27;;;3.90;;
8281;SDS011;25606;42.686;23.136;2022-08-19T04:51:31;4.10;;;3.70;;
8281;SDS011;25606;42.686;23.136;2022-08-19T04:53:59;4.83;;;4.00;;
8281;SDS011;25606;42.686;23.136;2022-08-19T04:56:27;4.33;;;3.93;;
8281;SDS011;25606;42.686;23.136;2022-08-19T04:58:55;5.27;;;4.40;;
8281;SDS011;25606;42.686;23.136;2022-08-19T05:01:25;4.37;;;3.97;;
8281;SDS011;25606;42.686;23.136;2022-08-19T05:03:53;6.40;;;4.13;;
8281;SDS011;25606;42.686;23.136;2022-08-19T05:06:21;4.53;;;4.13;;
8281;SDS011;25606;42.686;23.136;2022-08-19T05:08:50;4.03;;;3.73;;
8281;SDS011;25606;42.686;23.136;2022-08-19T05:11:18;4.00;;;3.70;;
8281;SDS011;25606;42.686;23.136;2022-08-19T05:13:46;6.33;;;4.37;;
8281;SDS011;25606;42.686;23.136;2022-08-19T05:16:15;4.53;;;3.73;;
8281;SDS011;25606;42.686;23.136;2022-08-19T05:18:44;4.13;;;3.83;;
8281;SDS011;25606;42.686;23.136;2022-08-19T05:21:29;4.00;;;3.60;;
8281;SDS011;25606;42.686;23.136;2022-08-19T05:24:14;4.40;;;3.83;;
8281;SDS011;25606;42.686;23.136;2022-08-19T05:26:43;4.57;;;4.17;;
8281;SDS011;25606;42.686;23.136;2022-08-19T05:29:11;5.00;;;4.10;;
8281;SDS011;25606;42.686;23.136;2022-08-19T05:31:39;5.00;;;4.53;;
8281;SDS011;25606;42.686;23.136;2022-08-19T05:34:08;4.30;;;3.90;;
8281;SDS011;25606;42.686;23.136;2022-08-19T05:36:36;4.93;;;3.77;;
8281;SDS011;25606;42.686;23.136;2022-08-19T05:39:05;4.33;;;3.90;;
8281;SDS011;25606;42.686;23.136;2022-08-19T05:41:32;3.93;;;3.57;;
8281;SDS011;25606;42.686;23.136;2022-08-19T05:44:01;4.27;;;3.87;;
8281;SDS011;25606;42.686;23.136;2022-08-19T05:46:30;3.97;;;3.67;;
8281;SDS011;25606;42.686;23.136;2022-08-19T05:48:58;4.13;;;3.77;;
8281;SDS011;25606;42.686;23.136;2022-08-19T05:51:26;4.60;;;4.20;;
8281;SDS011;25606;42.686;23.136;2022-08-19T05:53:54;6.23;;;4.07;;
8281;SDS011;25606;42.686;23.136;2022-08-19T05:56:21;4.37;;;3.97;;
8281;SDS011;25606;42.686;23.136;2022-08-19T05:58:48;3.80;;;3.50;;
8281;SDS011;25606;42.686;23.136;2022-08-19T06:01:16;4.68;;;4.28;;
8281;SDS011;25606;42.686;23.136;2022-08-19T06:03:44;4.10;;;3.80;;
8281;SDS011;25606;42.686;23.136;2022-08-19T06:06:14;4.47;;;3.53;;
8281;SDS011;25606;42.686;23.136;2022-08-19T06:08:43;3.80;;;3.50;;
8281;SDS011;25606;42.686;23.136;2022-08-19T06:11:17;4.30;;;3.78;;
8281;SDS011;25606;42.686;23.136;2022-08-19T06:13:44;277.35;;;167.00;;
8281;SDS011;25606;42.686;23.136;2022-08-19T06:16:16;4.25;;;3.78;;
8281;SDS011;25606;42.686;23.136;2022-08-19T06:18:47;3.95;;;3.60;;
8281;SDS011;25606;42.686;23.136;2022-08-19T06:21:16;3.80;;;3.47;;
8281;SDS011;25606;42.686;23.136;2022-08-19T06:23:45;4.55;;;3.40;;
8281;SDS011;25606;42.686;23.136;2022-08-19T06:26:13;4.38;;;3.50;;
8281;SDS011;25606;42.686;23.136;2022-08-19T06:28:41;4.28;;;3.90;;
8281;SDS011;25606;42.686;23.136;2022-08-19T06:31:11;4.25;;;3.92;;
8281;SDS011;25606;42.686;23.136;2022-08-19T06:33:40;4.03;;;3.75;;
8281;SDS011;25606;42.686;23.136;2022-08-19T06:36:07;5.47;;;4.43;;
8281;SDS011;25606;42.686;23.136;2022-08-19T06:38:35;3.97;;;3.63;;
8281;SDS011;25606;42.686;23.136;2022-08-19T06:41:04;4.53;;;4.00;;
8281;SDS011;25606;42.686;23.136;2022-08-19T06:43:31;6.32;;;4.63;;
8281;SDS011;25606;42.686;23.136;2022-08-19T06:45:58;6.05;;;3.95;;
8281;SDS011;25606;42.686;23.136;2022-08-19T06:48:26;4.82;;;3.97;;
8281;SDS011;25606;42.686;23.136;2022-08-19T06:50:53;6.70;;;4.55;;
8281;SDS011;25606;42.686;23.136;2022-08-19T06:53:21;9.65;;;4.90;;
8281;SDS011;25606;42.686;23.136;2022-08-19T06:55:48;9.13;;;4.60;;
8281;SDS011;25606;42.686;23.136;2022-08-19T06:58:26;7.72;;;4.35;;
8281;SDS011;25606;42.686;23.136;2022-08-19T07:00:57;8.02;;;4.57;;
8281;SDS011;25606;42.686;23.136;2022-08-19T07:03:26;12.05;;;5.47;;
8281;SDS011;25606;42.686;23.136;2022-08-19T07:05:53;11.85;;;5.28;;
8281;SDS011;25606;42.686;23.136;2022-08-19T07:08:20;16.02;;;8.43;;
8281;SDS011;25606;42.686;23.136;2022-08-19T07:10:47;23.83;;;12.98;;
8281;SDS011;25606;42.686;23.136;2022-08-19T07:13:15;12.95;;;10.07;;
8281;SDS011;25606;42.686;23.136;2022-08-19T07:15:43;8.57;;;5.38;;
8281;SDS011;25606;42.686;23.136;2022-08-19T07:18:12;13.75;;;6.90;;
8281;SDS011;25606;42.686;23.136;2022-08-19T07:20:39;12.15;;;9.60;;
8281;SDS011;25606;42.686;23.136;2022-08-19T07:23:08;18.27;;;15.00;;
8281;SDS011;25606;42.686;23.136;2022-08-19T07:25:35;19.70;;;16.38;;
8281;SDS011;25606;42.686;23.136;2022-08-19T07:28:02;10.30;;;6.38;;
8281;SDS011;25606;42.686;23.136;2022-08-19T07:30:30;12.05;;;5.43;;
8281;SDS011;25606;42.686;23.136;2022-08-19T07:32:59;8.32;;;5.22;;
8281;SDS011;25606;42.686;23.136;2022-08-19T07:35:26;7.80;;;5.22;;
8281;SDS011;25606;42.686;23.136;2022-08-19T07:37:53;10.38;;;5.90;;
8281;SDS011;25606;42.686;23.136;2022-08-19T07:40:21;15.98;;;10.38;;
8281;SDS011;25606;42.686;23.136;2022-08-19T07:42:48;16.20;;;13.27;;
8281;SDS011;25606;42.686;23.136;2022-08-19T07:45:15;19.02;;;15.45;;
8281;SDS011;25606;42.686;23.136;2022-08-19T07:47:42;31.10;;;28.40;;
8281;SDS011;25606;42.686;23.136;2022-08-19T07:50:12;48.25;;;44.15;;
8281;SDS011;25606;42.686;23.136;2022-08-19T07:52:39;44.88;;;41.22;;
8281;SDS011;25606;42.686;23.136;2022-08-19T07:55:09;66.95;;;60.90;;
8281;SDS011;25606;42.686;23.136;2022-08-19T07:57:37;51.90;;;47.97;;
8281;SDS011;25606;42.686;23.136;2022-08-19T08:00:05;64.78;;;59.40;;
8281;SDS011;25606;42.686;23.136;2022-08-19T08:02:32;54.58;;;49.03;;
8281;SDS011;25606;42.686;23.136;2022-08-19T08:05:00;51.13;;;47.33;;
8281;SDS011;25606;42.686;23.136;2022-08-19T08:07:46;61.03;;;56.30;;
8281;SDS011;25606;42.686;23.136;2022-08-19T08:10:31;72.68;;;67.60;;
8281;SDS011;25606;42.686;23.136;2022-08-19T08:12:58;94.57;;;87.38;;
8281;SDS011;25606;42.686;23.136;2022-08-19T08:15:26;80.28;;;74.15;;
8281;SDS011;25606;42.686;23.136;2022-08-19T08:17:53;66.60;;;61.88;;
8281;SDS011;25606;42.686;23.136;2022-08-19T08:20:23;14.18;;;8.98;;
8281;SDS011;25606;42.686;23.136;2022-08-19T08:22:51;26.48;;;20.85;;
8281;SDS011;25606;42.686;23.136;2022-08-19T08:25:36;26.63;;;20.80;;
8281;SDS011;25606;42.686;23.136;2022-08-19T08:28:03;32.55;;;25.35;;
8281;SDS011;25606;42.686;23.136;2022-08-19T08:30:34;21.45;;;12.57;;
8281;SDS011;25606;42.686;23.136;2022-08-19T08:33:02;13.55;;;5.78;;
8281;SDS011;25606;42.686;23.136;2022-08-19T08:35:30;25.02;;;6.75;;
8281;SDS011;25606;42.686;23.136;2022-08-19T08:37:59;11.77;;;5.30;;
8281;SDS011;25606;42.686;23.136;2022-08-19T08:40:29;10.23;;;4.55;;
8281;SDS011;25606;42.686;23.136;2022-08-19T08:42:57;9.38;;;5.10;;
8281;SDS011;25606;42.686;23.136;2022-08-19T08:45:27;7.07;;;4.38;;
8281;SDS011;25606;42.686;23.136;2022-08-19T08:47:55;8.32;;;4.38;;
8281;SDS011;25606;42.686;23.136;2022-08-19T08:50:25;6.15;;;4.35;;
8281;SDS011;25606;42.686;23.136;2022-08-19T08:52:56;6.22;;;4.05;;
8281;SDS011;25606;42.686;23.136;2022-08-19T08:55:26;8.55;;;5.25;;
8281;SDS011;25606;42.686;23.136;2022-08-19T08:57:55;7.00;;;4.40;;
8281;SDS011;25606;42.686;23.136;2022-08-19T09:00:26;6.05;;;4.03;;
8281;SDS011;25606;42.686;23.136;2022-08-19T09:02:54;6.95;;;4.47;;
8281;SDS011;25606;42.686;23.136;2022-08-19T09:05:23;7.03;;;4.22;;
8281;SDS011;25606;42.686;23.136;2022-08-19T09:07:56;5.35;;;3.88;;
8281;SDS011;25606;42.686;23.136;2022-08-19T09:10:27;7.20;;;4.47;;
8281;SDS011;25606;42.686;23.136;2022-08-19T09:12:57;5.30;;;4.10;;
8281;SDS011;25606;42.686;23.136;2022-08-19T09:15:30;6.28;;;4.35;;
8281;SDS011;25606;42.686;23.136;2022-08-19T09:17:59;7.95;;;4.43;;
8281;SDS011;25606;42.686;23.136;2022-08-19T09:20:28;5.97;;;4.30;;
8281;SDS011;25606;42.686;23.136;2022-08-19T09:22:57;5.20;;;4.10;;
8281;SDS011;25606;42.686;23.136;2022-08-19T09:25:25;7.05;;;4.28;;
8281;SDS011;25606;42.686;23.136;2022-08-19T09:27:54;7.85;;;4.28;;
8281;SDS011;25606;42.686;23.136;2022-08-19T09:30:23;6.22;;;4.32;;
8281;SDS011;25606;42.686;23.136;2022-08-19T09:32:51;6.65;;;4.80;;
8281;SDS011;25606;42.686;23.136;2022-08-19T09:35:19;12.45;;;5.50;;
8281;SDS011;25606;42.686;23.136;2022-08-19T09:37:47;6.30;;;4.13;;
8281;SDS011;25606;42.686;23.136;2022-08-19T09:40:15;8.20;;;4.43;;
8281;SDS011;25606;42.686;23.136;2022-08-19T09:42:43;7.30;;;4.10;;
8281;SDS011;25606;42.686;23.136;2022-08-19T09:45:13;8.63;;;4.40;;
8281;SDS011;25606;42.686;23.136;2022-08-19T09:47:40;12.07;;;4.60;;
8281;SDS011;25606;42.686;23.136;2022-08-19T09:50:08;10.80;;;4.75;;
8281;SDS011;25606;42.686;23.136;2022-08-19T09:52:37;11.30;;;4.80;;
8281;SDS011;25606;42.686;23.136;2022-08-19T09:55:04;7.70;;;3.90;;
8281;SDS011;25606;42.686;23.136;2022-08-19T09:57:32;9.82;;;4.20;;
8281;SDS011;25606;42.686;23.136;2022-08-19T10:00:00;12.05;;;4.70;;
8281;SDS011;25606;42.686;23.136;2022-08-19T10:02:29;17.85;;;5.85;;
8281;SDS011;25606;42.686;23.136;2022-08-19T10:04:56;11.88;;;4.55;;
8281;SDS011;25606;42.686;23.136;2022-08-19T10:07:41;10.75;;;4.40;;
8281;SDS011;25606;42.686;23.136;2022-08-19T10:10:09;10.00;;;4.57;;
8281;SDS011;25606;42.686;23.136;2022-08-19T10:12:36;19.73;;;5.82;;
8281;SDS011;25606;42.686;23.136;2022-08-19T10:15:04;13.45;;;4.75;;
8281;SDS011;25606;42.686;23.136;2022-08-19T10:17:33;13.98;;;4.88;;
8281;SDS011;25606;42.686;23.136;2022-08-19T10:20:00;13.85;;;4.68;;
8281;SDS011;25606;42.686;23.136;2022-08-19T10:22:29;11.05;;;4.53;;
8281;SDS011;25606;42.686;23.136;2022-08-19T10:24:56;11.20;;;4.40;;
8281;SDS011;25606;42.686;23.136;2022-08-19T10:27:23;17.95;;;4.95;;
8281;SDS011;25606;42.686;23.136;2022-08-19T10:29:52;22.13;;;6.53;;
8281;SDS011;25606;42.686;23.136;2022-08-19T10:32:19;14.95;;;5.28;;
8281;SDS011;25606;42.686;23.136;2022-08-19T10:34:48;15.15;;;5.82;;
8281;SDS011;25606;42.686;23.136;2022-08-19T10:37:17;14.57;;;5.18;;
8281;SDS011;25606;42.686;23.136;2022-08-19T10:39:46;15.27;;;5.85;;
8281;SDS011;25606;42.686;23.136;2022-08-19T10:42:14;14.35;;;4.95;;
8281;SDS011;25606;42.686;23.136;2022-08-19T10:44:43;24.73;;;7.50;;
8281;SDS011;25606;42.686;23.136;2022-08-19T10:47:11;12.98;;;5.10;;
8281;SDS011;25606;42.686;23.136;2022-08-19T10:49:38;10.77;;;4.70;;
8281;SDS011;25606;42.686;23.136;2022-08-19T10:52:21;13.43;;;5.13;;
8281;SDS011;25606;42.686;23.136;2022-08-19T10:55:02;13.77;;;5.70;;
8281;SDS011;25606;42.686;23.136;2022-08-19T10:57:47;8.20;;;4.38;;
8281;SDS011;25606;42.686;23.136;2022-08-19T11:00:15;8.98;;;4.50;;
8281;SDS011;25606;42.686;23.136;2022-08-19T11:02:42;11.70;;;4.72;;
8281;SDS011;25606;42.686;23.136;2022-08-19T11:05:09;11.38;;;4.93;;
8281;SDS011;25606;42.686;23.136;2022-08-19T11:07:38;8.07;;;4.25;;
8281;SDS011;25606;42.686;23.136;2022-08-19T11:10:06;8.20;;;4.60;;
8281;SDS011;25606;42.686;23.136;2022-08-19T11:12:36;10.05;;;4.95;;
8281;SDS011;25606;42.686;23.136;2022-08-19T11:15:04;10.85;;;5.30;;
8281;SDS011;25606;42.686;23.136;2022-08-19T11:17:32;12.77;;;5.40;;
8281;SDS011;25606;42.686;23.136;2022-08-19T11:20:00;14.85;;;5.65;;
8281;SDS011;25606;42.686;23.136;2022-08-19T11:22:30;15.15;;;5.78;;
8281;SDS011;25606;42.686;23.136;2022-08-19T11:24:59;16.83;;;6.25;;
8281;SDS011;25606;42.686;23.136;2022-08-19T11:27:27;15.48;;;6.07;;
8281;SDS011;25606;42.686;23.136;2022-08-19T11:29:55;14.18;;;5.70;;
8281;SDS011;25606;42.686;23.136;2022-08-19T11:32:22;11.32;;;5.20;;
8281;SDS011;25606;42.686;23.136;2022-08-19T11:34:49;11.60;;;4.45;;
8281;SDS011;25606;42.686;23.136;2022-08-19T11:37:17;10.23;;;4.45;;
8281;SDS011;25606;42.686;23.136;2022-08-19T11:39:44;10.10;;;4.68;;
8281;SDS011;25606;42.686;23.136;2022-08-19T11:42:13;14.57;;;5.97;;
8281;SDS011;25606;42.686;23.136;2022-08-19T11:44:58;9.45;;;4.63;;
8281;SDS011;25606;42.686;23.136;2022-08-19T11:47:25;13.35;;;6.30;;
8281;SDS011;25606;42.686;23.136;2022-08-19T11:49:53;7.80;;;4.47;;
8281;SDS011;25606;42.686;23.136;2022-08-19T11:52:20;12.07;;;5.03;;
8281;SDS011;25606;42.686;23.136;2022-08-19T11:54:47;16.20;;;6.40;;
8281;SDS011;25606;42.686;23.136;2022-08-19T11:57:16;9.52;;;4.65;;
8281;SDS011;25606;42.686;23.136;2022-08-19T11:59:47;11.45;;;5.60;;
8281;SDS011;25606;42.686;23.136;2022-08-19T12:02:15;13.77;;;6.47;;
8281;SDS011;25606;42.686;23.136;2022-08-19T12:04:42;14.23;;;6.47;;
8281;SDS011;25606;42.686;23.136;2022-08-19T12:07:09;11.15;;;5.25;;
8281;SDS011;25606;42.686;23.136;2022-08-19T12:09:36;11.02;;;5.40;;
8281;SDS011;25606;42.686;23.136;2022-08-19T12:12:04;13.45;;;4.75;;
8281;SDS011;25606;42.686;23.136;2022-08-19T12:14:33;15.50;;;6.50;;
8281;SDS011;25606;42.686;23.136;2022-08-19T12:17:00;14.15;;;5.38;;
8281;SDS011;25606;42.686;23.136;2022-08-19T12:19:29;16.90;;;6.28;;
8281;SDS011;25606;42.686;23.136;2022-08-19T12:21:58;11.50;;;5.45;;
8281;SDS011;25606;42.686;23.136;2022-08-19T12:24:26;16.60;;;9.13;;
8281;SDS011;25606;42.686;23.136;2022-08-19T12:26:54;11.82;;;4.55;;
8281;SDS011;25606;42.686;23.136;2022-08-19T12:29:23;29.77;;;21.52;;
8281;SDS011;25606;42.686;23.136;2022-08-19T12:31:55;61.65;;;57.38;;
8281;SDS011;25606;42.686;23.136;2022-08-19T12:34:27;48.78;;;43.35;;
8281;SDS011;25606;42.686;23.136;2022-08-19T12:36:56;43.20;;;38.95;;
8281;SDS011;25606;42.686;23.136;2022-08-19T12:39:23;74.22;;;68.82;;
8281;SDS011;25606;42.686;23.136;2022-08-19T12:41:50;54.00;;;49.90;;
8281;SDS011;25606;42.686;23.136;2022-08-19T12:44:17;78.68;;;73.50;;
8281;SDS011;25606;42.686;23.136;2022-08-19T12:46:44;94.32;;;88.10;;
8281;SDS011;25606;42.686;23.136;2022-08-19T12:49:13;61.67;;;57.47;;
8281;SDS011;25606;42.686;23.136;2022-08-19T12:51:40;98.30;;;91.97;;
8281;SDS011;25606;42.686;23.136;2022-08-19T12:54:08;39.45;;;34.35;;
8281;SDS011;25606;42.686;23.136;2022-08-19T12:56:36;47.90;;;43.67;;
8281;SDS011;25606;42.686;23.136;2022-08-19T12:59:03;84.50;;;78.82;;
8281;SDS011;25606;42.686;23.136;2022-08-19T13:01:32;146.52;;;136.40;;
8281;SDS011;25606;42.686;23.136;2022-08-19T13:04:00;217.27;;;202.63;;
8281;SDS011;25606;42.686;23.136;2022-08-19T13:06:28;264.05;;;246.48;;
8281;SDS011;25606;42.686;23.136;2022-08-19T13:08:56;246.20;;;229.25;;
8281;SDS011;25606;42.686;23.136;2022-08-19T13:11:23;125.40;;;117.32;;
8281;SDS011;25606;42.686;23.136;2022-08-19T13:13:51;163.35;;;153.02;;
8281;SDS011;25606;42.686;23.136;2022-08-19T13:16:20;204.00;;;190.32;;
8281;SDS011;25606;42.686;23.136;2022-08-19T13:18:47;53.85;;;47.30;;
8281;SDS011;25606;42.686;23.136;2022-08-19T13:21:15;77.30;;;71.28;;
8281;SDS011;25606;42.686;23.136;2022-08-19T13:23:46;64.45;;;59.33;;
8281;SDS011;25606;42.686;23.136;2022-08-19T13:26:13;20.05;;;13.07;;
8281;SDS011;25606;42.686;23.136;2022-08-19T13:28:41;33.03;;;28.60;;
8281;SDS011;25606;42.686;23.136;2022-08-19T13:31:28;57.70;;;53.78;;
8281;SDS011;25606;42.686;23.136;2022-08-19T13:34:13;12.40;;;5.57;;
8281;SDS011;25606;42.686;23.136;2022-08-19T13:36:41;86.22;;;79.60;;
8281;SDS011;25606;42.686;23.136;2022-08-19T13:39:09;62.63;;;58.25;;
8281;SDS011;25606;42.686;23.136;2022-08-19T13:41:37;126.88;;;117.90;;
8281;SDS011;25606;42.686;23.136;2022-08-19T13:44:12;102.00;;;95.18;;
8281;SDS011;25606;42.686;23.136;2022-08-19T13:46:40;84.55;;;79.20;;
8281;SDS011;25606;42.686;23.136;2022-08-19T13:49:10;119.43;;;110.70;;
8281;SDS011;25606;42.686;23.136;2022-08-19T13:51:37;152.43;;;141.52;;
8281;SDS011;25606;42.686;23.136;2022-08-19T13:54:05;179.30;;;166.70;;
8281;SDS011;25606;42.686;23.136;2022-08-19T13:56:35;161.80;;;150.35;;
8281;SDS011;25606;42.686;23.136;2022-08-19T13:59:06;158.00;;;146.85;;
8281;SDS011;25606;42.686;23.136;2022-08-19T14:01:33;135.20;;;126.07;;
8281;SDS011;25606;42.686;23.136;2022-08-19T14:04:00;107.38;;;99.50;;
8281;SDS011;25606;42.686;23.136;2022-08-19T14:06:28;92.05;;;85.10;;
8281;SDS011;25606;42.686;23.136;2022-08-19T14:08:55;95.57;;;88.78;;
8281;SDS011;25606;42.686;23.136;2022-08-19T14:11:22;100.57;;;93.45;;
8281;SDS011;25606;42.686;23.136;2022-08-19T14:13:51;105.47;;;97.30;;
8281;SDS011;25606;42.686;23.136;2022-08-19T14:16:18;149.70;;;139.27;;
8281;SDS011;25606;42.686;23.136;2022-08-19T14:18:46;184.35;;;171.63;;
8281;SDS011;25606;42.686;23.136;2022-08-19T14:21:14;187.05;;;173.63;;
8281;SDS011;25606;42.686;23.136;2022-08-19T14:23:42;197.88;;;183.13;;
8281;SDS011;25606;42.686;23.136;2022-08-19T14:26:11;204.70;;;190.88;;
8281;SDS011;25606;42.686;23.136;2022-08-19T14:28:39;167.15;;;155.43;;
8281;SDS011;25606;42.686;23.136;2022-08-19T14:31:08;164.05;;;152.00;;
8281;SDS011;25606;42.686;23.136;2022-08-19T14:33:35;124.57;;;115.95;;
8281;SDS011;25606;42.686;23.136;2022-08-19T14:36:03;114.35;;;106.45;;
8281;SDS011;25606;42.686;23.136;2022-08-19T14:38:30;99.40;;;92.55;;
8281;SDS011;25606;42.686;23.136;2022-08-19T14:41:08;120.40;;;111.97;;
8281;SDS011;25606;42.686;23.136;2022-08-19T14:43:36;127.50;;;118.65;;
8281;SDS011;25606;42.686;23.136;2022-08-19T14:46:03;145.02;;;134.30;;